Time;durP1;ratioP1;P1;durP2;ratioP2;P2;SDS_P1;SDS_P2;PMS_P1;PMS_P2;Temp;Humidity;BMP_temperature;BMP_pressure;BME280_temperature;BME280_humidity;BME280_pressure;Samples;Min_cycle;Max_cycle;Signal;HPM_P1;HPM_P2
2022/10/01 00:01:08;515592.00;1.72;888.67;0.00;0.00;0.62;;;;;15.60;1.00;;;;;;2289090;60;1121;-86
2022/10/01 00:03:37;546208.00;1.82;941.42;0.00;0.00;0.62;;;;;15.70;1.00;;;;;;2289055;60;1388;-86
2022/10/01 00:06:07;422379.00;1.41;728.28;30516.00;0.10;53.48;;;;;15.90;1.00;;;;;;2289006;60;1178;-85
2022/10/01 00:08:37;517866.00;1.73;892.59;0.00;0.00;0.62;;;;;16.10;1.00;;;;;;2289073;60;1089;-85
2022/10/01 00:11:11;283989.00;0.95;490.40;0.00;0.00;0.62;;;;;16.10;1.00;;;;;;2289022;60;1034;-85
2022/10/01 00:13:38;385648.00;1.29;665.13;0.00;0.00;0.62;;;;;16.10;1.00;;;;;;2288960;60;1593;-85
2022/10/01 00:16:07;549143.00;1.83;946.48;0.00;0.00;0.62;;;;;16.10;1.00;;;;;;2288982;60;2013;-86
2022/10/01 00:18:36;479367.00;1.60;826.31;0.00;0.00;0.62;;;;;15.90;1.00;;;;;;2289024;60;1079;-85
2022/10/01 00:21:07;383764.00;1.28;661.90;0.00;0.00;0.62;;;;;15.90;1.00;;;;;;2289017;60;994;-88
2022/10/01 00:23:34;328858.00;1.10;567.52;0.00;0.00;0.62;;;;;16.10;1.00;;;;;;2288900;60;1383;-86
2022/10/01 00:26:15;377898.00;1.26;651.81;0.00;0.00;0.62;;;;;16.30;1.00;;;;;;2288941;60;1119;-86
2022/10/01 00:28:44;629217.00;2.10;1084.70;85652.00;0.29;148.80;;;;;16.20;1.00;;;;;;2288783;60;1175;-86
2022/10/01 00:31:12;465511.00;1.55;802.47;67555.00;0.23;117.54;;;;;16.20;1.00;;;;;;2288934;60;1132;-86
2022/10/01 00:33:40;564509.00;1.88;972.98;70049.00;0.23;121.85;;;;;16.40;1.00;;;;;;2288909;60;1356;-85
2022/10/01 00:36:08;823350.00;2.74;1421.88;172029.00;0.57;297.76;;;;;16.50;1.00;;;;;;2288924;60;2002;-85
2022/10/01 00:38:36;595222.00;1.98;1025.97;72130.00;0.24;125.44;;;;;16.70;1.00;;;;;;2288905;60;1142;-84
2022/10/01 00:41:04;710136.00;2.37;1224.82;52310.00;0.17;91.18;;;;;16.70;1.00;;;;;;2288877;60;1050;-85
2022/10/01 00:43:35;717716.00;2.39;1237.97;66602.00;0.22;115.89;;;;;16.70;1.00;;;;;;2288773;60;1271;-85
2022/10/01 00:46:07;612912.00;2.04;1056.52;63563.00;0.21;110.64;;;;;16.70;1.00;;;;;;2288872;60;1012;-86
2022/10/01 00:48:41;703066.00;2.34;1212.56;66457.00;0.22;115.64;;;;;16.70;1.00;;;;;;2288868;60;1125;-84
2022/10/01 00:51:08;630360.00;2.10;1086.67;86773.00;0.29;150.74;;;;;16.80;1.00;;;;;;2288906;60;1038;-86
2022/10/01 00:53:35;606200.00;2.02;1044.93;72828.00;0.24;126.65;;;;;16.70;1.00;;;;;;2288781;60;1355;-85
2022/10/01 00:56:02;575693.00;1.92;992.27;35623.00;0.12;62.31;;;;;16.60;1.00;;;;;;2288829;60;1985;-85
2022/10/01 00:58:28;482493.00;1.61;831.69;0.00;0.00;0.62;;;;;16.30;1.00;;;;;;2288854;60;1035;-85
2022/10/01 01:00:57;365057.00;1.22;629.74;0.00;0.00;0.62;;;;;16.00;1.00;;;;;;2288876;60;1145;-87
2022/10/01 01:03:25;461140.00;1.54;794.95;0.00;0.00;0.62;;;;;16.00;1.00;;;;;;2288787;60;1474;-85
2022/10/01 01:05:53;403750.00;1.35;696.25;0.00;0.00;0.62;;;;;16.00;1.00;;;;;;2288782;60;1135;-85
2022/10/01 01:08:19;464877.00;1.55;801.38;0.00;0.00;0.62;;;;;16.00;1.00;;;;;;2288829;60;1059;-85
2022/10/01 01:10:58;336654.00;1.12;580.92;0.00;0.00;0.62;;;;;16.00;1.00;;;;;;2288827;60;1061;-84
2022/10/01 01:13:33;458220.00;1.53;789.92;0.00;0.00;0.62;;;;;16.20;1.00;;;;;;2288745;60;1812;-85
2022/10/01 01:16:08;509036.00;1.70;877.38;36568.00;0.12;63.95;;;;;16.40;1.00;;;;;;2288805;60;1911;-83
2022/10/01 01:18:41;469771.00;1.57;809.80;0.00;0.00;0.62;;;;;16.00;1.00;;;;;;2288794;60;1093;-84
2022/10/01 01:21:19;303570.00;1.01;524.06;0.00;0.00;0.62;;;;;15.90;1.00;;;;;;2288836;60;1136;-85
2022/10/01 01:24:26;447057.00;1.49;770.72;0.00;0.00;0.62;;;;;16.00;1.00;;;;;;2288775;60;1379;-86
2022/10/01 01:27:10;752550.00;2.51;1298.49;115737.00;0.39;200.73;;;;;16.20;1.00;;;;;;2288330;60;1125;-84
2022/10/01 01:29:43;398145.00;1.33;686.62;0.00;0.00;0.62;;;;;16.50;1.00;;;;;;2288805;60;957;-86
2022/10/01 01:32:14;335974.00;1.12;579.75;0.00;0.00;0.62;;;;;16.00;1.00;;;;;;2288784;60;1119;-85
2022/10/01 01:34:46;680444.00;2.27;1173.34;0.00;0.00;0.62;;;;;15.40;1.00;;;;;;2288760;60;1093;-85
2022/10/01 01:37:18;122801456.00;409.34;75022712.00;0.00;0.00;0.62;;;;;15.40;1.00;;;;;;2288740;60;1984;-86
2022/10/01 01:39:51;671826.00;2.24;1158.42;0.00;0.00;0.62;;;;;15.80;1.00;;;;;;2288686;60;1098;-85
2022/10/01 01:42:25;689444.00;2.30;1188.94;0.00;0.00;0.62;;;;;15.90;1.00;;;;;;2288711;60;1339;-86
2022/10/01 01:44:57;470954.00;1.57;811.83;0.00;0.00;0.62;;;;;15.70;1.00;;;;;;2288731;60;1029;-86
2022/10/01 01:47:31;407651.00;1.36;702.96;0.00;0.00;0.62;;;;;15.90;1.00;;;;;;2288716;60;1140;-85
2022/10/01 01:50:01;439962.00;1.47;758.52;0.00;0.00;0.62;;;;;16.00;1.00;;;;;;2288745;60;1080;-86
2022/10/01 01:52:27;540619.00;1.80;931.79;0.00;0.00;0.62;;;;;16.10;1.00;;;;;;2288623;60;1448;-85
2022/10/01 01:54:55;496971.00;1.66;856.61;0.00;0.00;0.62;;;;;15.70;1.00;;;;;;2288681;60;1257;-87
2022/10/01 01:57:22;622850.00;2.08;1073.69;0.00;0.00;0.62;;;;;15.40;1.00;;;;;;2288600;60;1985;-87
2022/10/01 01:59:49;432901.00;1.44;746.37;0.00;0.00;0.62;;;;;15.40;1.00;;;;;;2288657;60;1120;-86
2022/10/01 02:02:22;537370.00;1.79;926.19;0.00;0.00;0.62;;;;;15.80;1.00;;;;;;2288565;60;1391;-86
2022/10/01 02:04:55;546316.00;1.82;941.61;0.00;0.00;0.62;;;;;15.40;1.00;;;;;;2287905;60;1185;-85
2022/10/01 02:07:41;518741.00;1.73;894.10;0.00;0.00;0.62;;;;;15.00;1.00;;;;;;2288632;60;994;-86
2022/10/01 02:10:23;578074.00;1.93;996.38;5948.00;0.02;10.93;;;;;15.30;1.00;;;;;;2288612;60;1017;-86
2022/10/01 02:13:09;673076.00;2.24;1160.58;0.00;0.00;0.62;;;;;15.50;1.00;;;;;;2288624;60;1464;-86
2022/10/01 02:15:49;570349.00;1.90;983.05;0.00;0.00;0.62;;;;;15.10;1.00;;;;;;2288684;60;1001;-85
2022/10/01 02:18:29;404353.00;1.35;697.29;0.00;0.00;0.62;;;;;14.90;1.00;;;;;;2288616;60;1513;-86
2022/10/01 02:21:09;334239.00;1.11;576.77;0.00;0.00;0.62;;;;;15.10;1.00;;;;;;2288640;60;1072;-85
2022/10/01 02:23:42;396146.00;1.32;683.18;0.00;0.00;0.62;;;;;15.50;1.00;;;;;;2288582;60;1381;-85
2022/10/01 02:26:16;473689.00;1.58;816.54;0.00;0.00;0.62;;;;;15.80;1.00;;;;;;2288580;60;1010;-85
2022/10/01 02:28:44;346015.00;1.15;597.01;0.00;0.00;0.62;;;;;16.00;1.00;;;;;;2288569;60;1005;-85
2022/10/01 02:31:14;423409.00;1.41;730.05;0.00;0.00;0.62;;;;;16.20;1.00;;;;;;2288529;60;1067;-85
2022/10/01 02:33:44;410278.00;1.37;707.47;0.00;0.00;0.62;;;;;16.30;1.00;;;;;;2288529;60;1451;-86
2022/10/01 02:36:14;462918.00;1.54;798.00;9106.00;0.03;16.40;;;;;16.20;1.00;;;;;;2288500;60;2006;-85
2022/10/01 02:38:45;535519.00;1.79;923.00;0.00;0.00;0.62;;;;;16.00;1.00;;;;;;2288565;60;1075;-85
2022/10/01 02:41:17;405171.00;1.35;698.69;0.00;0.00;0.62;;;;;15.70;1.00;;;;;;2288593;60;1033;-86
2022/10/01 02:43:53;555969.00;1.85;958.25;44364.00;0.15;77.44;;;;;15.70;1.00;;;;;;2288524;60;1458;-85
2022/10/01 02:46:26;407431.00;1.36;702.58;0.00;0.00;0.62;;;;;15.50;1.00;;;;;;2288516;60;1074;-86
2022/10/01 02:48:55;828798.00;2.76;1431.39;0.00;0.00;0.62;;;;;15.20;1.00;;;;;;2288097;60;1082;-86
2022/10/01 02:51:29;451383.00;1.50;778.16;0.00;0.00;0.62;;;;;15.30;1.00;;;;;;2288960;60;1131;-86
2022/10/01 02:54:06;516531.00;1.72;890.29;0.00;0.00;0.62;;;;;15.40;1.00;;;;;;2289253;60;1328;-86
2022/10/01 02:59:21;423154.00;1.41;729.61;0.00;0.00;0.62;;;;;15.60;1.00;;;;;;2289279;60;648;-86
2022/10/01 03:01:47;439274.00;1.46;757.33;0.00;0.00;0.62;;;;;15.60;1.00;;;;;;2289203;60;949;-86
2022/10/01 03:04:18;481484.00;1.60;829.95;27244.00;0.09;47.81;;;;;15.50;1.00;;;;;;2289156;60;1272;-85
2022/10/01 03:06:45;452281.00;1.51;779.71;0.00;0.00;0.62;;;;;15.30;1.00;;;;;;2288927;60;1085;-86
2022/10/01 03:09:16;409609.00;1.37;706.32;0.00;0.00;0.62;;;;;15.10;1.00;;;;;;2289212;60;1047;-86
2022/10/01 03:11:43;517553.00;1.73;892.05;0.00;0.00;0.62;;;;;15.00;1.00;;;;;;2289213;60;1013;-86
2022/10/01 03:14:10;340663.00;1.14;587.81;0.00;0.00;0.62;;;;;15.30;1.00;;;;;;2289159;60;1338;-87
2022/10/01 03:16:37;622502.00;2.08;1073.09;47155.00;0.16;82.27;;;;;15.40;1.00;;;;;;2289181;60;1992;-86
2022/10/01 03:19:05;409981.00;1.37;706.96;0.00;0.00;0.62;;;;;15.20;1.00;;;;;;2289172;60;1059;-87
2022/10/01 03:21:33;408185.00;1.36;703.88;0.00;0.00;0.62;;;;;15.10;1.00;;;;;;2289123;60;1007;-87
2022/10/01 03:24:00;118533680.00;395.11;67462912.00;0.00;0.00;0.62;;;;;14.80;1.00;;;;;;2289159;60;1348;-86
2022/10/01 03:26:27;551607.00;1.84;950.73;0.00;0.00;0.62;;;;;14.50;1.00;;;;;;2289149;60;1045;-87
2022/10/01 03:28:54;540641.00;1.80;931.83;0.00;0.00;0.62;;;;;14.30;1.00;;;;;;2289175;60;1051;-86
2022/10/01 03:31:21;411745.00;1.37;710.00;0.00;0.00;0.62;;;;;14.30;1.00;;;;;;2289153;60;1134;-86
2022/10/01 03:33:47;383533.00;1.28;661.50;0.00;0.00;0.62;;;;;14.50;1.00;;;;;;2289129;60;1344;-86
2022/10/01 03:36:14;406197.00;1.35;700.46;0.00;0.00;0.62;;;;;14.70;1.00;;;;;;2289117;60;1998;-86
2022/10/01 03:38:42;538866.00;1.80;928.77;0.00;0.00;0.62;;;;;14.80;1.00;;;;;;2289158;60;1072;-86
2022/10/01 03:41:09;468640.00;1.56;807.85;0.00;0.00;0.62;;;;;14.80;1.00;;;;;;2289100;60;1113;-87
2022/10/01 03:43:36;507018.00;1.69;873.91;0.00;0.00;0.62;;;;;14.50;1.00;;;;;;2289051;60;1275;-87
2022/10/01 03:46:03;117287408.00;390.96;65355428.00;0.00;0.00;0.62;;;;;14.50;1.00;;;;;;2289156;60;1032;-86
2022/10/01 03:48:30;504257.00;1.68;869.15;0.00;0.00;0.62;;;;;14.70;1.00;;;;;;2289046;60;1129;-86
2022/10/01 03:50:58;462794.00;1.54;797.79;0.00;0.00;0.62;;;;;14.80;1.00;;;;;;2289089;60;1034;-86
2022/10/01 03:53:27;333465.00;1.11;575.44;0.00;0.00;0.62;;;;;15.00;1.00;;;;;;2288967;60;1304;-87
2022/10/01 03:55:55;598737.00;2.00;1032.04;0.00;0.00;0.62;;;;;14.90;1.00;;;;;;2289064;60;1145;-87
2022/10/01 03:58:22;354903.00;1.18;612.29;0.00;0.00;0.62;;;;;15.00;1.00;;;;;;2289048;60;2016;-86
2022/10/01 04:00:50;434021.00;1.45;748.30;0.00;0.00;0.62;;;;;14.90;1.00;;;;;;2289076;60;948;-87
2022/10/01 04:03:18;479726.00;1.60;826.93;0.00;0.00;0.62;;;;;15.00;1.00;;;;;;2288990;60;1269;-86
2022/10/01 04:05:46;441711.00;1.47;761.53;0.00;0.00;0.62;;;;;14.90;1.00;;;;;;2288988;60;1073;-86
2022/10/01 04:08:13;538628.00;1.80;928.36;0.00;0.00;0.62;;;;;15.20;1.00;;;;;;2289089;60;1028;-86
2022/10/01 04:10:41;311938.00;1.04;538.44;0.00;0.00;0.62;;;;;15.20;1.00;;;;;;2289018;60;1049;-86
2022/10/01 04:13:09;117884200.00;392.95;66359044.00;0.00;0.00;0.62;;;;;15.40;1.00;;;;;;2288974;60;1382;-85
2022/10/01 04:15:36;302589.00;1.01;522.37;0.00;0.00;0.62;;;;;15.60;1.00;;;;;;2288959;60;1023;-86
2022/10/01 04:18:04;438551.00;1.46;756.09;0.00;0.00;0.62;;;;;15.50;1.00;;;;;;2288983;60;1910;-85
2022/10/01 04:20:32;418997.00;1.40;722.47;0.00;0.00;0.62;;;;;15.60;1.00;;;;;;2289011;60;930;-85
2022/10/01 04:22:59;404060.00;1.35;696.78;0.00;0.00;0.62;;;;;15.40;1.00;;;;;;2288881;60;1285;-86
2022/10/01 04:25:27;499334.00;1.66;860.68;0.00;0.00;0.62;;;;;15.40;1.00;;;;;;2288951;60;1129;-85
2022/10/01 04:27:56;449684.00;1.50;775.24;0.00;0.00;0.62;;;;;15.50;1.00;;;;;;2289000;60;1018;-86
2022/10/01 04:30:26;341103.00;1.14;588.57;0.00;0.00;0.62;;;;;15.40;1.00;;;;;;2288934;60;1041;-86
2022/10/01 04:32:53;412873.00;1.38;711.94;0.00;0.00;0.62;;;;;15.40;1.00;;;;;;2288952;60;1378;-87
2022/10/01 04:35:20;393687.00;1.31;678.95;0.00;0.00;0.62;;;;;15.30;1.00;;;;;;2288925;60;1117;-86
2022/10/01 04:37:48;411866.00;1.37;710.21;0.00;0.00;0.62;;;;;15.30;1.00;;;;;;2288913;60;1909;-86
2022/10/01 04:40:16;503367.00;1.68;867.62;0.00;0.00;0.62;;;;;15.40;1.00;;;;;;2288940;60;1093;-87
2022/10/01 04:42:43;513567.00;1.71;885.19;0.00;0.00;0.62;;;;;15.50;1.00;;;;;;2288885;60;1409;-86
2022/10/01 04:45:12;355651.00;1.19;613.57;0.00;0.00;0.62;;;;;15.50;1.00;;;;;;2288936;60;974;-87
2022/10/01 04:47:47;1069548.00;3.57;1856.05;170181.00;0.57;294.58;;;;;15.50;1.00;;;;;;2288958;60;1010;-87
2022/10/01 04:50:15;443488.00;1.48;764.58;0.00;0.00;0.62;;;;;15.60;1.00;;;;;;2288918;60;1116;-86
2022/10/01 04:52:42;304693.00;1.02;525.99;0.00;0.00;0.62;;;;;15.80;1.00;;;;;;2288900;60;1366;-86
2022/10/01 04:55:09;357614.00;1.19;616.95;0.00;0.00;0.62;;;;;15.90;1.00;;;;;;2288839;60;1012;-86
2022/10/01 04:57:37;324501.00;1.08;560.03;0.00;0.00;0.62;;;;;15.90;1.00;;;;;;2288888;60;1915;-86
2022/10/01 05:00:05;424897.00;1.42;732.61;0.00;0.00;0.62;;;;;15.70;1.00;;;;;;2288927;60;1013;-87
2022/10/01 05:02:33;459973.00;1.53;792.94;0.00;0.00;0.62;;;;;15.50;1.00;;;;;;2288825;60;1269;-86
2022/10/01 05:05:02;408321.00;1.36;704.11;0.00;0.00;0.62;;;;;15.70;1.00;;;;;;2288734;60;1104;-87
2022/10/01 05:07:29;438608.00;1.46;756.19;0.00;0.00;0.62;;;;;15.70;1.00;;;;;;2288814;60;1046;-87
2022/10/01 05:09:56;410029.00;1.37;707.05;0.00;0.00;0.62;;;;;16.00;1.00;;;;;;2288809;60;1094;-85
2022/10/01 05:12:24;417426.00;1.39;719.76;0.00;0.00;0.62;;;;;15.90;1.00;;;;;;2288770;60;1287;-87
2022/10/01 05:14:51;505945.00;1.69;872.06;4847.00;0.02;9.02;;;;;15.50;1.00;;;;;;2288720;60;1145;-86
2022/10/01 05:17:18;345104.00;1.15;595.45;0.00;0.00;0.62;;;;;15.50;1.00;;;;;;2288770;60;1907;-85
2022/10/01 05:19:45;424419.00;1.41;731.79;0.00;0.00;0.62;;;;;15.70;1.00;;;;;;2288846;60;1108;-85
2022/10/01 05:22:14;411571.00;1.37;709.70;0.00;0.00;0.62;;;;;15.80;1.00;;;;;;2288775;60;983;-85
2022/10/01 05:24:42;407742.00;1.36;703.11;0.00;0.00;0.62;;;;;16.00;1.00;;;;;;2288712;60;1606;-86
2022/10/01 05:27:12;603038.00;2.01;1039.47;54960.00;0.18;95.76;;;;;16.20;1.00;;;;;;2288650;60;2092;-86
2022/10/01 05:29:39;405859.00;1.35;699.88;0.00;0.00;0.62;;;;;16.50;1.00;;;;;;2288759;60;1054;-87
2022/10/01 05:32:07;401322.00;1.34;692.08;0.00;0.00;0.62;;;;;16.30;1.00;;;;;;2288739;60;1014;-85
2022/10/01 05:34:34;479758.00;1.60;826.98;0.00;0.00;0.62;;;;;16.40;1.00;;;;;;2288701;60;1201;-86
2022/10/01 05:37:01;503860.00;1.68;868.47;0.00;0.00;0.62;;;;;16.30;1.00;;;;;;2288754;60;2006;-86
2022/10/01 05:39:29;356163.00;1.19;614.45;0.00;0.00;0.62;;;;;16.30;1.00;;;;;;2288748;60;1088;-86
2022/10/01 05:41:57;416104.00;1.39;717.49;26514.00;0.09;46.55;;;;;15.90;1.00;;;;;;2288764;60;1144;-86
2022/10/01 05:44:25;445753.00;1.49;768.48;0.00;0.00;0.62;;;;;15.80;1.00;;;;;;2288665;60;1300;-86
2022/10/01 05:46:53;480322.00;1.60;827.95;0.00;0.00;0.62;;;;;15.70;1.00;;;;;;2288717;60;1131;-87
2022/10/01 05:49:20;473936.00;1.58;816.96;0.00;0.00;0.62;;;;;15.80;1.00;;;;;;2288752;60;1111;-86
2022/10/01 05:51:48;538414.00;1.79;927.99;0.00;0.00;0.62;;;;;15.90;1.00;;;;;;2288718;60;1109;-87
2022/10/01 05:54:18;355041.00;1.18;612.53;0.00;0.00;0.62;;;;;15.70;1.00;;;;;;2288566;60;1429;-86
2022/10/01 05:56:46;570612.00;1.90;983.50;0.00;0.00;0.62;;;;;15.60;1.00;;;;;;2288707;60;1116;-87
2022/10/01 05:59:13;407878.00;1.36;703.35;0.00;0.00;0.62;;;;;15.20;1.00;;;;;;2288583;60;1934;-87
2022/10/01 06:01:40;363007.00;1.21;626.22;0.00;0.00;0.62;;;;;15.20;1.00;;;;;;2288664;60;1258;-87
2022/10/01 06:04:09;468290.00;1.56;807.25;0.00;0.00;0.62;;;;;14.80;1.00;;;;;;2288642;60;1358;-88
2022/10/01 06:06:36;432957.00;1.44;746.47;0.00;0.00;0.62;;;;;14.90;1.00;;;;;;2288690;60;1058;-87
2022/10/01 06:09:03;392143.00;1.31;676.30;0.00;0.00;0.62;;;;;15.00;1.00;;;;;;2288638;60;1063;-86
2022/10/01 06:11:30;272594.00;0.91;470.80;0.00;0.00;0.62;;;;;15.10;1.00;;;;;;2288682;60;1085;-86
2022/10/01 06:13:59;241849.00;0.81;417.93;0.00;0.00;0.62;;;;;15.30;1.00;;;;;;2288555;60;1261;-86
2022/10/01 06:16:26;484071.00;1.61;834.40;0.00;0.00;0.62;;;;;15.50;1.00;;;;;;2288697;60;1091;-87
2022/10/01 06:18:56;571004.00;1.90;984.18;0.00;0.00;0.62;;;;;15.30;1.00;;;;;;2288622;60;1996;-86
2022/10/01 06:21:23;388163.00;1.29;669.46;0.00;0.00;0.62;;;;;15.30;1.00;;;;;;2288635;60;1226;-86
2022/10/01 06:23:50;117823280.00;392.74;66256132.00;0.00;0.00;0.62;;;;;15.20;1.00;;;;;;2288594;60;1356;-86
2022/10/01 06:26:18;445638.00;1.49;768.28;73096.00;0.24;127.11;;;;;14.80;1.00;;;;;;2288306;60;1154;-86
2022/10/01 06:28:45;559646.00;1.87;964.59;0.00;0.00;0.62;;;;;14.60;1.00;;;;;;2288601;60;1104;-87
2022/10/01 06:31:13;384536.00;1.28;663.22;0.00;0.00;0.62;;;;;14.80;1.00;;;;;;2288611;60;1006;-87
2022/10/01 06:33:40;553848.00;1.85;954.59;0.00;0.00;0.62;;;;;14.90;1.00;;;;;;2288447;60;1364;-86
2022/10/01 06:36:07;301559.00;1.01;520.60;0.00;0.00;0.62;;;;;14.70;1.00;;;;;;2288589;60;1093;-86
2022/10/01 06:38:34;309103.00;1.03;533.57;0.00;0.00;0.62;;;;;14.80;1.00;;;;;;2288463;60;1998;-85
2022/10/01 06:41:02;598758.00;2.00;1032.08;0.00;0.00;0.62;;;;;14.90;1.00;;;;;;2288515;60;1132;-85
2022/10/01 06:43:31;299587.00;1.00;517.21;0.00;0.00;0.62;;;;;14.80;1.00;;;;;;2288411;60;1402;-86
2022/10/01 06:46:01;527178.00;1.76;908.63;0.00;0.00;0.62;;;;;14.90;1.00;;;;;;2288500;60;1094;-85
2022/10/01 06:48:30;521205.00;1.74;898.34;0.00;0.00;0.62;;;;;14.70;1.00;;;;;;2288480;60;1013;-85
2022/10/01 06:50:57;528609.00;1.76;911.10;0.00;0.00;0.62;;;;;14.80;1.00;;;;;;2288563;60;1157;-84
2022/10/01 06:53:24;468913.00;1.56;808.32;0.00;0.00;0.62;;;;;14.50;1.00;;;;;;2288394;60;1331;-84
2022/10/01 06:55:51;517357.00;1.72;891.71;0.00;0.00;0.62;;;;;14.50;1.00;;;;;;2288453;60;1049;-86
2022/10/01 06:58:20;651053.00;2.17;1122.46;2203.00;0.01;4.44;;;;;14.40;1.00;;;;;;2288506;60;1998;-86
2022/10/01 07:00:48;389242.00;1.30;671.31;0.00;0.00;0.62;;;;;14.60;1.00;;;;;;2288507;60;1063;-86
2022/10/01 07:03:17;571683.00;1.91;985.35;49636.00;0.17;86.56;;;;;15.20;1.00;;;;;;2288467;60;1345;-85
2022/10/01 07:05:45;341469.00;1.14;589.20;0.00;0.00;0.62;;;;;15.30;1.00;;;;;;2288447;60;1097;-85
2022/10/01 07:08:13;373582.00;1.25;644.39;0.00;0.00;0.62;;;;;15.30;1.00;;;;;;2288510;60;1090;-85
2022/10/01 07:10:41;322518.00;1.08;556.63;0.00;0.00;0.62;;;;;15.50;1.00;;;;;;2288491;60;1101;-85
2022/10/01 07:13:09;534318.00;1.78;920.93;0.00;0.00;0.62;;;;;15.50;1.00;;;;;;2288448;60;1355;-86
2022/10/01 07:15:37;368840.00;1.23;636.24;0.00;0.00;0.62;;;;;15.80;1.00;;;;;;2288454;60;1101;-86
2022/10/01 07:18:05;512042.00;1.71;882.56;0.00;0.00;0.62;;;;;15.80;1.00;;;;;;2288452;60;1996;-88
2022/10/01 07:20:34;288071.00;0.96;497.41;0.00;0.00;0.62;;;;;15.70;1.00;;;;;;2288418;60;1009;-86
2022/10/01 07:23:03;446066.00;1.49;769.02;367.00;0.00;1.26;;;;;15.60;1.00;;;;;;2288395;60;1348;-86
2022/10/01 07:25:30;543573.00;1.81;936.88;0.00;0.00;0.62;;;;;15.00;1.00;;;;;;2288326;60;999;-86
2022/10/01 07:27:58;509892.00;1.70;878.86;0.00;0.00;0.62;;;;;15.30;1.00;;;;;;2288324;60;1074;-86
2022/10/01 07:30:26;487977.00;1.63;841.13;0.00;0.00;0.62;;;;;15.20;1.00;;;;;;2288331;60;1616;-86
2022/10/01 07:32:53;365952.00;1.22;631.28;0.00;0.00;0.62;;;;;15.30;1.00;;;;;;2288392;60;1210;-86
2022/10/01 07:35:20;466588.00;1.56;804.32;0.00;0.00;0.62;;;;;15.10;1.00;;;;;;2288391;60;1120;-86
2022/10/01 07:37:47;376666.00;1.26;649.69;0.00;0.00;0.62;;;;;14.80;1.00;;;;;;2288950;60;2004;-86
2022/10/01 07:40:17;509119.00;1.70;877.53;0.00;0.00;0.62;;;;;14.70;1.00;;;;;;2289121;60;1069;-87
2022/10/01 07:42:44;266206.00;0.89;459.82;0.00;0.00;0.62;;;;;14.90;1.00;;;;;;2289051;60;1260;-85
2022/10/01 07:45:11;469197.00;1.56;808.81;21918.00;0.07;38.59;;;;;14.90;1.00;;;;;;2289084;60;984;-86
2022/10/01 07:47:38;519661.00;1.73;895.68;0.00;0.00;0.62;;;;;14.90;1.00;;;;;;2289076;60;1114;-86
2022/10/01 07:50:06;384384.00;1.28;662.96;0.00;0.00;0.62;;;;;14.80;1.00;;;;;;2289044;60;1086;-86
2022/10/01 07:52:33;528525.00;1.76;910.95;25560.00;0.09;44.90;;;;;14.70;1.00;;;;;;2289007;60;1368;-86
2022/10/01 07:55:00;344401.00;1.15;594.24;0.00;0.00;0.62;;;;;14.90;1.00;;;;;;2289047;60;1155;-87
2022/10/01 07:57:28;517258.00;1.72;891.54;0.00;0.00;0.62;;;;;14.60;1.00;;;;;;2289109;60;1138;-86
2022/10/01 07:59:55;501000.00;1.67;863.55;0.00;0.00;0.62;;;;;14.20;1.00;;;;;;2289005;60;2006;-85
2022/10/01 08:02:22;365824.00;1.22;631.06;0.00;0.00;0.62;;;;;14.10;1.00;;;;;;2288918;60;1305;-85
2022/10/01 08:07:34;428266.00;1.43;738.40;0.00;0.00;0.62;;;;;14.30;1.00;;;;;;2289110;60;649;-86
2022/10/01 08:10:03;441356.00;1.47;760.91;0.00;0.00;0.62;;;;;14.20;1.00;;;;;;2288982;60;1607;-86
2022/10/01 08:12:31;428571.00;1.43;738.93;0.00;0.00;0.62;;;;;14.20;1.00;;;;;;2288945;60;1284;-86
2022/10/01 08:14:58;425693.00;1.42;733.98;64810.00;0.22;112.79;;;;;14.20;1.00;;;;;;2289000;60;1090;-85
2022/10/01 08:17:25;496929.00;1.66;856.54;0.00;0.00;0.62;;;;;14.00;1.00;;;;;;2288941;60;1089;-85
2022/10/01 08:19:52;627074.00;2.09;1080.99;18870.00;0.06;33.31;;;;;13.80;1.00;;;;;;2289000;60;2013;-85
2022/10/01 08:22:18;423567.00;1.41;730.32;0.00;0.00;0.62;;;;;14.00;1.00;;;;;;2288841;60;1291;-86
2022/10/01 08:24:45;406808.00;1.36;701.51;0.00;0.00;0.62;;;;;13.90;1.00;;;;;;2288858;60;1000;-86
2022/10/01 08:27:12;564570.00;1.88;973.08;7057.00;0.02;12.85;;;;;14.00;1.00;;;;;;2288833;60;1019;-85
2022/10/01 08:29:42;652362.00;2.17;1124.72;10274.00;0.03;18.42;;;;;14.10;1.00;;;;;;2288934;60;1026;-85
2022/10/01 08:32:09;426661.00;1.42;735.64;0.00;0.00;0.62;;;;;14.10;1.00;;;;;;2289013;60;993;-85
2022/10/01 08:34:36;426189.00;1.42;734.83;4553.00;0.02;8.51;;;;;13.90;1.00;;;;;;2288798;60;1317;-85
2022/10/01 08:37:03;117285384.00;390.95;65352044.00;0.00;0.00;0.62;;;;;14.00;1.00;;;;;;2288932;60;959;-85
2022/10/01 08:39:30;574297.00;1.91;989.86;0.00;0.00;0.62;;;;;14.10;1.00;;;;;;2288997;60;1915;-86
2022/10/01 08:42:05;330834.00;1.10;570.92;0.00;0.00;0.62;;;;;14.10;1.00;;;;;;2288858;60;1612;-86
2022/10/01 08:44:40;748087.00;2.49;1290.73;0.00;0.00;0.62;;;;;14.40;1.00;;;;;;2288909;60;1277;-86
2022/10/01 08:47:18;474377.00;1.58;817.72;57435.00;0.19;100.04;;;;;14.40;1.00;;;;;;2288892;60;1232;-87
2022/10/01 08:49:51;553818.00;1.85;954.54;0.00;0.00;0.62;;;;;14.20;1.00;;;;;;2288760;60;1131;-86
2022/10/01 08:52:23;305575.00;1.02;527.50;0.00;0.00;0.62;;;;;14.20;1.00;;;;;;2288867;60;1460;-86
2022/10/01 08:54:57;489481.00;1.63;843.72;0.00;0.00;0.62;;;;;14.20;1.00;;;;;;2288881;60;1144;-85
2022/10/01 08:57:28;467758.00;1.56;806.33;0.00;0.00;0.62;;;;;13.90;1.00;;;;;;2288903;60;1072;-87
2022/10/01 09:00:00;468007.00;1.56;806.76;28338.00;0.09;49.71;;;;;14.20;1.00;;;;;;2288849;60;1932;-85
2022/10/01 09:02:31;122091488.00;406.97;73727800.00;0.00;0.00;0.62;;;;;14.20;1.00;;;;;;2288777;60;1367;-86
2022/10/01 09:05:02;571800.00;1.91;985.55;0.00;0.00;0.62;;;;;14.30;1.00;;;;;;2288772;60;1128;-86
2022/10/01 09:07:42;529491.00;1.76;912.61;0.00;0.00;0.62;;;;;14.50;1.00;;;;;;2288364;60;1170;-86
2022/10/01 09:10:24;333244.00;1.11;575.06;0.00;0.00;0.62;;;;;14.70;1.00;;;;;;2288734;60;1055;-86
2022/10/01 09:13:08;449505.00;1.50;774.93;0.00;0.00;0.62;;;;;14.90;1.00;;;;;;2288725;60;1354;-87
2022/10/01 09:15:47;496942.00;1.66;856.56;0.00;0.00;0.62;;;;;15.10;1.00;;;;;;2288844;60;1018;-88
2022/10/01 09:18:38;396004.00;1.32;682.94;0.00;0.00;0.62;;;;;15.00;1.00;;;;;;2288763;60;1985;-86
2022/10/01 09:21:14;380082.00;1.27;655.57;0.00;0.00;0.62;;;;;14.90;1.00;;;;;;2288797;60;1055;-86
2022/10/01 09:23:55;350142.00;1.17;604.11;0.00;0.00;0.62;;;;;14.70;1.00;;;;;;2288749;60;1462;-86
2022/10/01 09:26:22;477867.00;1.59;823.73;0.00;0.00;0.62;;;;;14.70;1.00;;;;;;2288761;60;1104;-86
2022/10/01 09:28:53;434045.00;1.45;748.34;0.00;0.00;0.62;;;;;14.50;1.00;;;;;;2288737;60;1076;-86
2022/10/01 09:31:27;575179.00;1.92;991.38;47703.00;0.16;83.21;;;;;14.10;1.00;;;;;;2288730;60;1076;-86
2022/10/01 09:34:02;432448.00;1.44;745.60;0.00;0.00;0.62;;;;;14.00;1.00;;;;;;2288629;60;2207;-85
2022/10/01 09:36:37;411505.00;1.37;709.58;0.00;0.00;0.62;;;;;14.40;1.00;;;;;;2288671;60;1059;-86
2022/10/01 09:39:16;481752.00;1.61;830.41;0.00;0.00;0.62;;;;;14.50;1.00;;;;;;2288716;60;1980;-85
2022/10/01 09:41:45;430107.00;1.43;741.57;0.00;0.00;0.62;;;;;14.30;1.00;;;;;;2288621;60;1069;-86
2022/10/01 09:44:17;440074.00;1.47;758.71;0.00;0.00;0.62;;;;;14.30;1.00;;;;;;2288705;60;1283;-86
2022/10/01 09:46:46;366265.00;1.22;631.82;0.00;0.00;0.62;;;;;14.60;1.00;;;;;;2288658;60;1021;-86
2022/10/01 09:49:26;468049.00;1.56;806.83;0.00;0.00;0.62;;;;;14.60;1.00;;;;;;2288705;60;1113;-85
2022/10/01 09:52:01;457129.00;1.52;788.05;0.00;0.00;0.62;;;;;14.80;1.00;;;;;;2288746;60;1117;-86
2022/10/01 09:54:34;460174.00;1.53;793.28;0.00;0.00;0.62;;;;;15.10;1.00;;;;;;2288722;60;1321;-85
2022/10/01 09:57:09;480521.00;1.60;828.29;0.00;0.00;0.62;;;;;15.00;1.00;;;;;;2288675;60;1139;-87
2022/10/01 09:59:43;462777.00;1.54;797.76;0.00;0.00;0.62;;;;;15.20;1.00;;;;;;2288534;60;1931;-86
2022/10/01 10:02:20;412916.00;1.38;712.01;0.00;0.00;0.62;;;;;14.80;1.00;;;;;;2288722;60;1116;-85
2022/10/01 10:05:00;518259.00;1.73;893.27;0.00;0.00;0.62;;;;;14.40;1.00;;;;;;2288578;60;1053;-85
2022/10/01 10:07:31;433384.00;1.44;747.20;0.00;0.00;0.62;;;;;14.30;1.00;;;;;;2288707;60;1117;-87
2022/10/01 10:10:07;688099.00;2.29;1186.61;0.00;0.00;0.62;;;;;14.50;1.00;;;;;;2333245;39;3767;-88